Wetter

Nordholz:

METAR:

2019/12/13 20:20 ETMN 132020Z 18006KT 4500 -DZ BR BKN002 01/00 Q0981 AMB

TAF:

2019/12/13 13:28 TAF AMD ETMN 131323Z 1313/1321 11008KT 9999 NSW FEW010 BKN035 BECMG 1313/1315 12010KT 8000 NSW FEW010 BKN022 BECMG 1319/1320 15006KT 5000 -RA SCT004 OVC010 TEMPO 1320/1321 16005KT 3000 -SN BKN004 OVC007

Wind EDXN:

14.12. 01:10z 190/07G12kt
14.12. 01:20z 190/11kt
14.12. 01:30z 200/12kt
14.12. 01:40z 210/12G15kt
14.12. 01:50z 200/13G16kt
14.12. 02:00z 210/13G17kt
14.12. 02:10z 210/13G19kt
14.12. 02:20z 200/13G17kt
14.12. 02:30z 200/15G18kt
14.12. 02:40z 200/14G20kt

Bremen:

METAR:

2019/12/13 20:20 EDDW 132020Z 17003KT 6000 -RA BKN012 02/01 Q0982 TEMPO 4500

TAF:

2019/12/13 18:28 TAF EDDW 131700Z 1318/1418 13006KT 9999 FEW008 BKN015 TEMPO 1318/1323 2500 -RASN BKN008 BECMG 1319/1322 21005KT BKN006 TEMPO 1323/1404 3500 -RADZ BECMG 1404/1407 21010KT FEW010 BKN020 PROB40 TEMPO 1407/1410 4000 RA BKN010 BECMG 1410/1412 23015G25KT TEMPO 1410/1416 24020G35KT SHRA BKN015CB PROB30 TEMPO 1410/1416 25025G40KT 3500 BKN010CB

Hamburg:

METAR:

2019/12/13 20:20 EDDH 132020Z 14007KT 9999 BKN009 02/M00 Q0982 TEMPO BKN010

TAF:

2019/12/13 18:27 TAF EDDH 131700Z 1318/1424 12007KT 9999 FEW012 BKN020 TEMPO 1318/1321 BKN011 BECMG 1321/1324 19005KT BKN006 TEMPO 1322/1402 2000 -RASN TEMPO 1402/1406 3500 -RADZ PROB30 TEMPO 1402/1406 BKN004 BECMG 1406/1409 20010KT FEW010 BKN020 PROB40 TEMPO 1409/1412 4000 RA BKN010 BECMG 1411/1413 23015G25KT TEMPO 1412/1417 25020G35KT SHRA BKN015CB PROB30 TEMPO 1412/1417 25025G40KT 3500 BKN010CB TEMPO 1417/1424 23012KT

Hannover:

METAR:

2019/12/13 20:20 EDDV 132020Z 22004KT 9000 -RADZ SCT010 BKN013 03/02 Q0982 TEMPO 4500 BKN015

TAF:

2019/12/13 18:27 TAF EDDV 131700Z 1318/1418 10006KT 9999 BKN025 BECMG 1319/1321 24005KT TEMPO 1320/1401 2500 -RASN BKN011 BECMG 1321/1324 BKN007 TEMPO 1401/1403 3500 -RADZ BECMG 1401/1404 22010KT FEW010 BKN030 TEMPO 1407/1410 4500 RA PROB30 TEMPO 1407/1410 BKN011 BECMG 1410/1412 23015G25KT TEMPO 1412/1415 24020G35KT PROB30 TEMPO 1412/1415 24025G40KT 3500 SHRA BKN012CB

Wikipedia Artikel: METARTAF

Daten von Aviation Weather Center der NOAA, es kann keine Garantie für Aktualität und Richtigkeit der Daten übernommen werden.

Die Nutzung dieser Daten zur Flugplanung ist nicht zulässig!

Inoffizielle ATIS 🙂